Time;durP1;ratioP1;P1;durP2;ratioP2;P2;SDS_P1;SDS_P2;PMS_P1;PMS_P2;Temp;Humidity;BMP_temperature;BMP_pressure;BME280_temperature;BME280_humidity;BME280_pressure;Samples;Min_cycle;Max_cycle;Signal;HPM_P1;HPM_P2
2023/09/30 00:02:13;;;;;;;;;3.33;3.00;;;;;18.60;53.89;102175.84;5117842;27;45495;-66
2023/09/30 00:04:39;;;;;;;;;4.33;3.00;;;;;18.62;54.15;102171.38;5117301;27;45502;-67
2023/09/30 00:07:05;;;;;;;;;4.00;2.67;;;;;18.65;54.19;102178.47;5117335;27;45191;-66
2023/09/30 00:09:31;;;;;;;;;4.67;2.33;;;;;18.66;54.17;102185.53;5114938;27;45453;-66
2023/09/30 00:11:56;;;;;;;;;4.00;3.00;;;;;18.55;53.98;102175.00;5117375;27;45524;-67
2023/09/30 00:14:22;;;;;;;;;4.33;2.67;;;;;18.62;54.08;102187.31;5116729;27;45532;-65
2023/09/30 00:16:47;;;;;;;;;4.33;3.00;;;;;18.70;53.81;102187.28;5117641;27;45662;-66
2023/09/30 00:19:13;;;;;;;;;4.33;4.33;;;;;18.75;54.03;102187.22;5117494;27;45470;-67
2023/09/30 00:21:40;;;;;;;;;6.00;4.00;;;;;18.73;53.81;102181.06;5117267;27;45536;-67
2023/09/30 00:24:05;;;;;;;;;5.33;4.00;;;;;18.74;53.97;102188.97;5116454;27;46621;-68
2023/09/30 00:26:31;;;;;;;;;6.33;2.33;;;;;18.62;54.22;102171.38;5117345;27;45376;-66
2023/09/30 00:28:57;;;;;;;;;7.33;3.00;;;;;18.71;54.16;102185.50;5133632;27;45403;-66
2023/09/30 00:31:22;;;;;;;;;7.00;5.00;;;;;18.77;54.03;102186.34;5117265;27;45667;-66
2023/09/30 00:33:48;;;;;;;;;7.67;4.33;;;;;18.76;54.25;102188.97;5116767;27;45991;-65
2023/09/30 00:36:14;;;;;;;;;4.67;3.00;;;;;18.67;54.22;102183.75;5117342;27;45243;-66
2023/09/30 00:38:40;;;;;;;;;3.00;3.00;;;;;18.54;54.42;102182.97;5117131;27;46335;-66
2023/09/30 00:41:07;;;;;;;;;5.00;3.67;;;;;18.65;54.27;102195.28;5117330;27;45436;-66
2023/09/30 00:43:33;;;;;;;;;4.33;3.00;;;;;18.74;54.47;102198.72;5116667;27;46127;-65
2023/09/30 00:46:06;;;;;;;;;5.67;3.00;;;;;18.74;54.28;102188.97;5116906;27;45529;-65
2023/09/30 00:48:39;;;;;;;;;5.33;2.67;;;;;18.74;54.42;102172.19;5116241;27;45410;-66
2023/09/30 00:51:06;;;;;;;;;2.67;2.00;;;;;18.91;54.10;102174.72;5115845;27;45418;-66
2023/09/30 00:53:32;;;;;;;;;4.00;3.67;;;;;18.96;53.77;102175.53;5116482;27;45566;-66
2023/09/30 00:55:59;;;;;;;;;2.33;2.33;;;;;18.81;54.10;102185.41;5116993;27;45425;-65
2023/09/30 00:58:28;;;;;;;;;3.00;3.00;;;;;18.77;54.28;102170.44;5115360;27;45359;-66
2023/09/30 01:00:56;;;;;;;;;8.00;3.00;;;;;18.67;54.84;102165.16;5132999;27;45615;-66
2023/09/30 01:03:23;;;;;;;;;3.00;3.00;;;;;18.57;54.92;102157.28;5116437;27;45525;-66
2023/09/30 01:05:49;;;;;;;;;6.33;2.00;;;;;18.59;54.80;102152.84;5117687;27;46830;-66
2023/09/30 01:08:16;;;;;;;;;4.00;3.00;;;;;18.57;54.75;102162.59;5120475;27;45424;-66
2023/09/30 01:10:42;;;;;;;;;3.00;1.33;;;;;18.65;54.65;102183.78;5121632;27;45435;-65
2023/09/30 01:13:08;;;;;;;;;2.00;2.00;;;;;18.70;54.60;102189.00;5120019;27;45412;-66
2023/09/30 01:15:34;;;;;;;;;4.33;2.00;;;;;18.55;54.88;102177.63;5121222;27;45372;-66
2023/09/30 01:17:59;;;;;;;;;5.00;2.33;;;;;18.62;54.98;102183.78;5118873;27;45455;-66
2023/09/30 01:20:26;;;;;;;;;5.67;3.00;;;;;18.57;55.11;102178.50;5120645;27;45531;-66
2023/09/30 01:22:55;;;;;;;;;2.33;2.33;;;;;18.54;54.82;102181.19;5120194;27;45627;-66
2023/09/30 01:25:21;;;;;;;;;6.33;4.00;;;;;18.55;54.77;102187.38;5120145;27;45390;-65
2023/09/30 01:27:47;;;;;;;;;5.67;3.00;;;;;18.66;54.68;102204.09;5121521;27;45288;-65
2023/09/30 01:30:13;;;;;;;;;7.67;4.00;;;;;18.55;55.01;102204.16;5122144;27;45381;-66
2023/09/30 01:32:40;;;;;;;;;5.00;3.00;;;;;18.54;54.99;102197.13;5120082;27;46239;-66
2023/09/30 01:35:06;;;;;;;;;6.67;4.67;;;;;18.49;55.10;102188.31;5119872;27;45448;-66
2023/09/30 01:37:31;;;;;;;;;7.33;4.67;;;;;18.55;54.96;102195.34;5120344;27;45592;-66
2023/09/30 01:39:57;;;;;;;;;3.00;3.00;;;;;18.54;54.56;102169.72;5111398;27;45515;-66
2023/09/30 01:42:23;;;;;;;;;7.33;2.00;;;;;18.53;54.70;102178.53;5119141;27;46067;-65
2023/09/30 01:44:49;;;;;;;;;3.67;3.67;;;;;18.37;55.16;102153.94;5120560;27;45386;-65
2023/09/30 01:47:14;;;;;;;;;8.33;3.67;;;;;18.34;55.73;102175.16;5118666;27;45404;-66
2023/09/30 01:49:40;;;;;;;;;4.33;1.67;;;;;18.09;55.53;102126.75;5107959;27;45404;-66
2023/09/30 01:52:06;;;;;;;;;5.67;3.00;;;;;18.16;55.67;102141.72;5135683;27;46957;-66
2023/09/30 01:54:32;;;;;;;;;3.33;3.33;;;;;18.28;55.75;102172.56;5120442;27;45391;-65
2023/09/30 01:56:58;;;;;;;;;4.67;1.33;;;;;18.33;55.66;102157.50;5108751;27;45579;-65
2023/09/30 01:59:24;;;;;;;;;3.00;3.00;;;;;18.38;55.25;102168.94;5116809;27;45651;-67
2023/09/30 02:01:50;;;;;;;;;5.33;4.00;;;;;18.33;55.70;102162.81;5119802;27;45740;-66
2023/09/30 02:04:16;;;;;;;;;5.00;3.33;;;;;18.23;56.12;102157.56;5120471;27;45644;-66
2023/09/30 02:06:42;;;;;;;;;5.67;3.33;;;;;18.10;56.09;102155.88;5119550;27;45329;-66
2023/09/30 02:09:09;;;;;;;;;4.00;3.33;;;;;18.02;56.33;102144.44;5117972;27;45406;-66
2023/09/30 02:11:35;;;;;;;;;6.33;3.00;;;;;18.09;56.09;102145.28;5118915;27;46143;-66
2023/09/30 02:14:05;;;;;;;;;3.33;3.33;;;;;18.12;56.14;102154.09;5107453;27;45483;-66
2023/09/30 02:16:31;;;;;;;;;5.33;2.00;;;;;18.00;56.82;102159.47;5116498;27;45494;-66
2023/09/30 02:18:57;;;;;;;;;3.33;3.33;;;;;17.96;56.96;102163.03;5118848;27;45441;-65
2023/09/30 02:21:22;;;;;;;;;4.00;2.67;;;;;18.00;56.53;102170.09;5117891;27;45495;-66
2023/09/30 02:23:48;;;;;;;;;3.33;2.00;;;;;17.99;56.88;102171.88;5119421;27;45436;-65
2023/09/30 02:26:17;;;;;;;;;3.00;3.00;;;;;17.99;56.81;102171.00;5119514;27;45473;-66
2023/09/30 02:28:43;;;;;;;;;7.00;4.67;;;;;17.85;57.08;102168.41;5119197;27;45327;-65
2023/09/30 02:31:09;;;;;;;;;5.67;2.00;;;;;17.95;57.01;102171.88;5119031;27;46323;-66
2023/09/30 02:33:38;;;;;;;;;9.00;3.00;;;;;17.82;57.36;102160.50;5118704;27;45381;-66
2023/09/30 02:36:07;;;;;;;;;8.33;5.00;;;;;17.73;57.04;102145.47;5119238;27;45315;-66
2023/09/30 02:38:32;;;;;;;;;5.00;3.33;;;;;17.87;57.09;102144.53;5118975;27;45381;-66
2023/09/30 02:40:58;;;;;;;;;3.00;2.33;;;;;17.90;56.94;102156.00;5118609;27;45461;-66
2023/09/30 02:43:24;;;;;;;;;7.00;3.67;;;;;17.90;57.06;102161.31;5118758;27;45806;-65
2023/09/30 02:45:50;;;;;;;;;3.33;3.33;;;;;17.67;57.75;102148.13;5118863;27;45254;-65
2023/09/30 02:48:16;;;;;;;;;4.00;4.00;;;;;17.64;57.72;102145.50;5105024;27;45502;-66
2023/09/30 02:50:44;;;;;;;;;4.00;2.67;;;;;17.68;57.99;102157.88;5116347;27;45381;-66
2023/09/30 02:53:11;;;;;;;;;7.00;4.00;;;;;17.65;58.16;102162.28;5120018;27;45443;-66
2023/09/30 02:55:36;;;;;;;;;4.00;3.00;;;;;17.67;57.78;102156.09;5120244;27;45437;-65
2023/09/30 02:58:02;;;;;;;;;5.33;3.33;;;;;17.76;57.94;102173.72;5120373;27;45474;-67
2023/09/30 03:00:32;;;;;;;;;5.00;4.33;;;;;17.77;57.60;102180.78;5118295;27;45944;-66
2023/09/30 03:03:04;;;;;;;;;1.33;0.00;;;;;17.80;57.71;102179.03;5097900;27;45423;-67
2023/09/30 03:05:33;;;;;;;;;4.67;4.67;;;;;17.79;57.98;102176.34;5112593;27;45407;-66
2023/09/30 03:08:04;;;;;;;;;5.00;3.00;;;;;17.74;57.80;102180.78;5101635;27;45585;-66
2023/09/30 03:10:29;;;;;;;;;6.00;3.33;;;;;17.74;58.01;102178.16;5112474;27;45302;-66
2023/09/30 03:13:01;;;;;;;;;6.33;4.00;;;;;17.83;57.80;102188.75;5118866;27;45221;-67
2023/09/30 03:15:32;;;;;;;;;4.33;3.67;;;;;17.83;58.01;102194.03;5134402;27;45524;-65
2023/09/30 03:17:59;;;;;;;;;7.33;1.67;;;;;17.83;57.62;102193.16;5118587;27;45485;-66
2023/09/30 03:20:25;;;;;;;;;5.33;3.67;;;;;17.87;57.67;102197.53;5118249;27;46580;-66
2023/09/30 03:22:52;;;;;;;;;7.00;4.00;;;;;17.82;57.99;102191.38;5118314;27;45444;-67
2023/09/30 03:25:19;;;;;;;;;4.00;1.67;;;;;17.73;57.78;102193.16;5118405;27;45497;-67
2023/09/30 03:27:48;;;;;;;;;5.00;4.00;;;;;17.79;57.66;102198.41;5117134;27;45611;-66
2023/09/30 03:30:15;;;;;;;;;6.00;5.00;;;;;17.83;57.65;102206.41;5117030;27;45338;-66
2023/09/30 03:32:42;;;;;;;;;4.00;4.00;;;;;17.78;57.96;102201.09;5134731;27;45563;-66
2023/09/30 03:35:16;;;;;;;;;6.33;5.00;;;;;17.78;57.69;102198.44;5135667;27;45462;-65
2023/09/30 03:37:46;;;;;;;;;7.00;3.33;;;;;17.76;57.75;102208.19;5118360;27;45461;-66
2023/09/30 03:40:27;;;;;;;;;5.33;4.00;;;;;17.78;57.95;102203.75;5118011;27;46092;-66
2023/09/30 03:42:53;;;;;;;;;7.67;3.00;;;;;17.84;57.67;102219.63;5118424;27;45477;-65
2023/09/30 03:45:19;;;;;;;;;5.67;4.00;;;;;17.88;57.47;102212.56;5117968;27;45534;-66
2023/09/30 03:47:45;;;;;;;;;5.67;5.00;;;;;17.89;57.27;102211.66;5110160;27;45400;-66
2023/09/30 03:50:14;;;;;;;;;6.00;4.33;;;;;17.89;57.41;102201.06;5111309;27;46323;-66
2023/09/30 03:52:44;;;;;;;;;5.00;4.00;;;;;17.95;56.96;102203.69;5103985;27;45527;-65
2023/09/30 03:55:11;;;;;;;;;5.33;3.67;;;;;17.85;57.31;102194.03;5119352;27;45493;-66
2023/09/30 03:57:37;;;;;;;;;9.33;5.33;;;;;17.85;57.56;102207.28;5118330;27;45417;-66
2023/09/30 04:00:06;;;;;;;;;3.33;3.33;;;;;17.83;57.57;102199.34;5117417;27;45497;-67
2023/09/30 04:02:33;;;;;;;;;6.00;4.00;;;;;17.85;57.82;102199.34;5117311;27;45282;-66
2023/09/30 04:05:03;;;;;;;;;5.33;4.00;;;;;17.86;57.67;102194.00;5117756;27;45353;-65
2023/09/30 04:07:29;;;;;;;;;5.33;3.00;;;;;17.82;57.70;102189.63;5117887;27;45895;-65
2023/09/30 04:09:55;;;;;;;;;9.33;4.33;;;;;17.65;57.67;102172.88;5117459;27;45497;-67
2023/09/30 04:12:23;;;;;;;;;5.67;5.67;;;;;17.64;57.94;102166.72;5118165;27;45432;-67
2023/09/30 04:14:49;;;;;;;;;9.00;4.33;;;;;17.60;58.17;102159.66;5117565;27;45447;-66
2023/09/30 04:17:15;;;;;;;;;7.00;4.67;;;;;17.50;58.57;102158.81;5118150;27;45602;-66
2023/09/30 04:19:40;;;;;;;;;9.33;4.33;;;;;17.30;59.19;102144.78;5117662;27;46943;-66
2023/09/30 04:22:06;;;;;;;;;7.67;6.33;;;;;17.38;58.89;102150.94;5118517;27;46150;-66
2023/09/30 04:24:31;;;;;;;;;11.00;6.33;;;;;17.28;59.57;102150.09;5117738;27;45535;-66
2023/09/30 04:27:02;;;;;;;;;7.00;5.00;;;;;17.05;59.43;102130.72;5118388;27;45381;-66
2023/09/30 04:29:29;;;;;;;;;5.67;5.67;;;;;16.98;59.87;102140.44;5117290;27;45535;-66
2023/09/30 04:31:57;;;;;;;;;6.67;5.00;;;;;16.98;61.08;102144.88;5117195;27;45461;-65
2023/09/30 04:34:23;;;;;;;;;9.33;6.00;;;;;16.77;60.71;102122.81;5117469;27;46283;-67
2023/09/30 04:36:48;;;;;;;;;7.33;4.33;;;;;16.73;61.13;102132.53;5117325;27;45438;-66
2023/09/30 04:39:15;;;;;;;;;7.67;3.00;;;;;16.66;61.55;102130.78;5117355;27;45639;-67
2023/09/30 04:41:43;;;;;;;;;8.33;7.33;;;;;16.65;61.85;102134.28;5116786;27;45320;-66
2023/09/30 04:44:12;;;;;;;;;6.00;4.33;;;;;16.55;61.76;102116.66;5122072;27;45388;-66
2023/09/30 04:46:40;;;;;;;;;5.33;4.33;;;;;16.75;61.57;102140.44;5121780;27;45381;-65
2023/09/30 04:49:08;;;;;;;;;8.00;6.33;;;;;16.77;61.47;102158.97;5105868;27;46552;-64
2023/09/30 04:51:34;;;;;;;;;7.33;6.00;;;;;16.86;61.18;102172.22;5119061;27;45371;-68
2023/09/30 04:53:59;;;;;;;;;6.33;5.33;;;;;16.91;60.76;102154.56;5119570;27;45571;-68
2023/09/30 04:56:25;;;;;;;;;8.50;7.00;;;;;17.03;60.68;102156.31;5120283;27;45521;-66
2023/09/30 04:58:51;;;;;;;;;8.00;4.67;;;;;16.98;60.59;102172.22;5119986;27;46015;-66
2023/09/30 05:01:18;;;;;;;;;8.33;5.67;;;;;17.09;60.41;102172.19;5120198;27;45535;-66
2023/09/30 05:03:44;;;;;;;;;10.00;5.67;;;;;17.01;60.97;102184.56;5120144;27;45467;-67
2023/09/30 05:06:10;;;;;;;;;4.67;4.33;;;;;16.97;60.71;102177.53;5119820;27;45353;-67
2023/09/30 05:08:35;;;;;;;;;5.33;5.00;;;;;16.95;60.78;102165.16;5118449;27;46055;-66
2023/09/30 05:11:02;;;;;;;;;11.00;5.00;;;;;16.86;60.83;102146.66;5117721;27;45443;-66
2023/09/30 05:13:27;;;;;;;;;10.00;6.67;;;;;16.80;61.07;102153.69;5119995;27;45799;-66
2023/09/30 05:15:53;;;;;;;;;6.00;5.00;;;;;17.01;60.50;102179.25;5119319;27;45302;-66
2023/09/30 05:18:19;;;;;;;;;8.33;6.00;;;;;16.93;60.97;102163.41;5109949;27;45388;-66
2023/09/30 05:20:49;;;;;;;;;10.33;7.00;;;;;16.84;61.29;102169.56;5120804;27;45462;-65
2023/09/30 05:23:15;;;;;;;;;6.00;5.33;;;;;16.85;61.02;102176.66;5114072;27;45544;-66
2023/09/30 05:25:42;;;;;;;;;7.00;5.33;;;;;16.91;60.83;102171.34;5118735;27;45368;-66
2023/09/30 05:28:09;;;;;;;;;8.33;6.33;;;;;16.92;60.86;102164.31;5119800;27;45563;-67
2023/09/30 05:30:46;;;;;;;;;8.00;6.00;;;;;16.84;60.64;102156.34;5119762;27;45336;-66
2023/09/30 05:33:14;;;;;;;;;9.67;5.33;;;;;16.73;60.79;102145.75;5118117;27;45471;-66
2023/09/30 05:35:41;;;;;;;;;9.00;6.33;;;;;16.93;60.57;102193.38;5120015;27;45366;-66
2023/09/30 05:38:19;;;;;;;;;12.00;6.67;;;;;16.91;60.77;102184.56;5117733;27;46165;-67
2023/09/30 05:40:44;;;;;;;;;8.00;5.33;;;;;16.86;61.70;102186.34;5118162;27;45598;-70
2023/09/30 05:43:13;;;;;;;;;8.67;6.33;;;;;16.54;61.89;102166.06;5133917;27;45555;-68
2023/09/30 05:45:44;;;;;;;;;8.33;5.33;;;;;16.48;61.93;102162.50;5121490;27;45548;-67
2023/09/30 05:48:30;;;;;;;;;8.33;5.00;;;;;16.55;61.89;102201.31;5106003;27;45974;-66
2023/09/30 05:51:39;;;;;;;;;8.00;5.00;;;;;16.48;61.50;102168.69;5119214;27;45463;-67
2023/09/30 05:54:05;;;;;;;;;6.33;4.00;;;;;16.49;62.20;102169.56;5121375;27;45450;-65
2023/09/30 05:56:37;;;;;;;;;10.00;3.33;;;;;16.26;62.33;102144.00;5118533;27;45338;-67
2023/09/30 05:59:05;;;;;;;;;5.33;2.00;;;;;16.32;61.93;102128.16;5105375;27;46184;-66
2023/09/30 06:01:32;;;;;;;;;4.33;3.00;;;;;16.60;61.87;102159.00;5117273;27;45407;-68
2023/09/30 06:03:59;;;;;;;;;3.67;2.33;;;;;16.66;61.62;102162.53;5103186;27;45545;-66
2023/09/30 06:06:28;;;;;;;;;5.67;5.00;;;;;16.63;61.91;102173.06;5105506;27;45221;-65
2023/09/30 06:08:54;;;;;;;;;8.67;4.67;;;;;16.54;61.68;102160.75;5102087;27;46290;-67
2023/09/30 06:11:24;;;;;;;;;10.00;4.00;;;;;16.48;61.85;102160.75;5102178;27;46639;-66
2023/09/30 06:14:14;;;;;;;;;4.00;2.00;;;;;16.42;61.60;102149.28;5105487;27;45384;-66
2023/09/30 06:16:40;;;;;;;;;3.67;3.67;;;;;16.70;61.23;102166.03;5111970;27;45439;-65
2023/09/30 06:19:06;;;;;;;;;5.33;5.00;;;;;16.78;60.92;102160.75;5111654;27;45454;-66
2023/09/30 06:21:34;;;;;;;;;9.00;5.67;;;;;16.92;61.18;102175.75;5115282;27;45419;-66
2023/09/30 06:24:00;;;;;;;;;6.00;5.33;;;;;16.87;61.10;102173.97;5105648;27;45510;-66
2023/09/30 06:27:13;;;;;;;;;5.00;4.00;;;;;17.05;60.42;102188.97;5116437;27;45185;-68
2023/09/30 06:29:40;;;;;;;;;6.67;3.33;;;;;17.23;60.02;102196.00;5096063;27;46740;-67
2023/09/30 06:32:07;;;;;;;;;4.00;3.67;;;;;17.11;60.32;102170.44;5105043;27;45496;-66
2023/09/30 06:34:35;;;;;;;;;8.00;3.67;;;;;16.98;61.10;102163.41;5103207;27;46699;-66
2023/09/30 06:37:03;;;;;;;;;5.33;3.00;;;;;16.94;61.30;102187.22;5119475;27;45579;-67
2023/09/30 06:39:42;;;;;;;;;4.00;4.00;;;;;16.87;60.38;102171.34;5109663;27;45395;-68
2023/09/30 06:42:08;;;;;;;;;5.67;5.00;;;;;17.23;60.00;102204.81;5102294;27;45488;-67
2023/09/30 06:44:35;;;;;;;;;7.67;5.00;;;;;17.34;59.94;102210.94;5101847;27;45621;-66
2023/09/30 06:47:01;;;;;;;;;5.00;4.00;;;;;17.37;59.50;102212.75;5107151;27;45503;-66
2023/09/30 06:49:26;;;;;;;;;8.67;4.33;;;;;17.41;59.44;102209.16;5119687;27;45943;-68
2023/09/30 06:51:52;;;;;;;;;6.33;5.00;;;;;17.29;60.03;102199.50;5113753;27;45362;-67
2023/09/30 06:54:18;;;;;;;;;5.00;3.33;;;;;17.16;61.00;102197.78;5118758;27;45546;-68
2023/09/30 06:56:43;;;;;;;;;10.67;4.33;;;;;17.27;60.40;102208.31;5119019;27;45332;-67
2023/09/30 06:59:09;;;;;;;;;6.67;6.00;;;;;17.30;59.88;102209.22;5134577;27;47047;-66
2023/09/30 07:01:34;;;;;;;;;8.00;4.67;;;;;17.39;60.02;102213.59;5118759;27;45365;-66
2023/09/30 07:04:03;;;;;;;;;7.67;4.00;;;;;17.22;59.96;102195.09;5136385;27;45676;-67
2023/09/30 07:06:28;;;;;;;;;4.00;3.33;;;;;17.12;60.30;102196.88;5113866;27;45458;-67
2023/09/30 07:08:57;;;;;;;;;5.67;4.67;;;;;17.04;60.29;102208.41;5112210;27;45892;-66
2023/09/30 07:11:32;;;;;;;;;6.33;5.00;;;;;17.04;61.00;102195.16;5118534;27;45490;-68
2023/09/30 07:14:05;;;;;;;;;12.00;6.67;;;;;16.91;60.87;102195.16;5119796;27;45566;-67
2023/09/30 07:16:31;;;;;;;;;12.00;7.33;;;;;16.93;61.16;102201.31;5105737;27;45259;-65
2023/09/30 07:18:57;;;;;;;;;13.33;7.00;;;;;16.90;61.08;102189.88;5118226;27;45454;-67
2023/09/30 07:21:22;;;;;;;;;9.00;7.00;;;;;17.00;60.97;102215.44;5118079;27;45557;-65
2023/09/30 07:23:48;;;;;;;;;7.33;5.00;;;;;17.08;60.83;102218.06;5118644;27;45352;-67
2023/09/30 07:26:24;;;;;;;;;10.33;7.67;;;;;17.09;60.34;102181.03;5118517;27;45310;-66
2023/09/30 07:28:49;;;;;;;;;7.00;6.67;;;;;17.50;59.75;102213.56;5118216;27;46127;-63
2023/09/30 07:31:15;;;;;;;;;5.33;3.33;;;;;17.37;60.12;102207.44;5117872;27;45443;-66
2023/09/30 07:33:41;;;;;;;;;9.00;5.00;;;;;17.51;59.95;102210.03;5118801;27;45336;-66
2023/09/30 07:36:07;;;;;;;;;8.67;5.67;;;;;17.60;59.46;102197.63;5119955;27;45397;-66
2023/09/30 07:38:32;;;;;;;;;7.67;7.33;;;;;17.70;59.33;102205.53;5118582;27;46662;-65
2023/09/30 07:41:00;;;;;;;;;7.67;7.33;;;;;17.79;59.59;102203.72;5118364;27;45402;-67
2023/09/30 07:43:28;;;;;;;;;8.33;6.33;;;;;17.88;59.58;102200.19;5116912;27;45413;-66
2023/09/30 07:45:54;;;;;;;;;8.00;8.00;;;;;17.96;59.21;102206.34;5119248;27;45277;-66
2023/09/30 07:48:19;;;;;;;;;9.00;7.33;;;;;18.04;59.05;102203.66;5105014;27;45990;-69
2023/09/30 07:50:47;;;;;;;;;9.00;6.33;;;;;18.23;59.51;102200.00;5116408;27;45416;-67
2023/09/30 07:53:13;;;;;;;;;10.33;7.67;;;;;18.35;58.32;102208.75;5117688;27;45506;-67
2023/09/30 07:55:39;;;;;;;;;6.67;6.00;;;;;18.35;58.31;102200.81;5118198;27;45554;-66
2023/09/30 07:58:05;;;;;;;;;11.33;7.33;;;;;18.61;57.45;102206.78;5117295;27;45603;-66
2023/09/30 08:00:33;;;;;;;;;9.67;7.33;;;;;18.65;57.45;102205.00;5117451;27;45929;-67
2023/09/30 08:03:00;;;;;;;;;8.33;6.00;;;;;18.79;57.34;102204.91;5117580;27;45498;-67
2023/09/30 08:05:26;;;;;;;;;6.67;5.00;;;;;18.80;56.71;102206.69;5117992;27;45573;-66
2023/09/30 08:07:52;;;;;;;;;8.67;6.00;;;;;18.77;56.85;102209.34;5117038;27;45381;-66
2023/09/30 08:10:18;;;;;;;;;10.33;4.33;;;;;18.89;56.64;102227.84;5116493;27;45763;-68
2023/09/30 08:12:48;;;;;;;;;6.00;6.00;;;;;19.04;56.10;102213.53;5117257;27;45773;-67
2023/09/30 08:15:14;;;;;;;;;7.67;6.00;;;;;19.15;55.96;102227.59;5107018;27;45491;-65
2023/09/30 08:17:40;;;;;;;;;9.00;4.00;;;;;19.10;56.01;102224.09;5119535;27;46096;-66
2023/09/30 08:20:06;;;;;;;;;7.33;5.33;;;;;18.99;56.10;102224.19;5120735;27;45500;-67
2023/09/30 08:22:32;;;;;;;;;7.33;4.00;;;;;18.78;56.41;102203.16;5121122;27;45420;-65
2023/09/30 08:24:57;;;;;;;;;8.00;6.67;;;;;18.77;56.54;102207.59;5106403;27;46602;-67
2023/09/30 08:27:26;;;;;;;;;7.33;5.00;;;;;18.82;56.73;102227.00;5121222;27;45489;-65
2023/09/30 08:29:52;;;;;;;;;9.67;6.67;;;;;18.82;56.67;102229.66;5118651;27;45550;-67
2023/09/30 08:32:17;;;;;;;;;6.00;3.00;;;;;18.84;56.42;102234.97;5104997;27;45453;-66
2023/09/30 08:34:43;;;;;;;;;8.67;6.67;;;;;18.82;56.39;102227.00;5115755;27;45573;-66
2023/09/30 08:37:15;;;;;;;;;9.33;8.00;;;;;18.95;56.62;102235.72;5120386;27;45337;-68
2023/09/30 08:39:40;;;;;;;;;13.00;8.33;;;;;19.00;56.21;102230.38;5119345;27;45523;-65
2023/09/30 08:42:11;;;;;;;;;13.00;7.67;;;;;18.97;55.95;102220.66;5120915;27;45447;-68
2023/09/30 08:44:39;;;;;;;;;10.00;7.00;;;;;19.05;55.75;102229.47;5121413;27;45456;-68
2023/09/30 08:47:06;;;;;;;;;9.33;9.00;;;;;19.00;56.21;102225.94;5118627;27;45478;-68
2023/09/30 08:49:37;;;;;;;;;12.00;8.33;;;;;19.24;55.72;102239.88;5107908;27;45338;-67
2023/09/30 08:52:04;;;;;;;;;13.00;6.00;;;;;18.88;54.94;102194.19;5120550;27;45483;-66
2023/09/30 08:54:31;;;;;;;;;8.67;6.33;;;;;19.03;55.86;102249.84;5119613;27;45514;-67
2023/09/30 08:56:57;;;;;;;;;7.67;5.67;;;;;19.19;55.82;102241.69;5120442;27;45405;-67
2023/09/30 08:59:25;;;;;;;;;9.33;7.67;;;;;19.26;55.49;102254.03;5120199;27;45442;-67
2023/09/30 09:01:52;;;;;;;;;7.33;6.33;;;;;19.37;55.24;102249.50;5121362;27;45430;-67
2023/09/30 09:04:18;;;;;;;;;8.33;6.00;;;;;19.49;55.09;102249.34;5121805;27;45302;-68
2023/09/30 09:06:44;;;;;;;;;10.33;8.00;;;;;19.48;54.88;102249.34;5121791;27;46167;-66
2023/09/30 09:09:14;;;;;;;;;7.00;4.00;;;;;19.53;54.63;102246.66;5119777;27;45488;-67
2023/09/30 09:11:40;;;;;;;;;13.67;8.33;;;;;19.51;54.19;102241.38;5120155;27;45444;-67
2023/09/30 09:14:07;;;;;;;;;10.33;8.33;;;;;19.63;54.26;102251.00;5120536;27;45441;-67
2023/09/30 09:16:32;;;;;;;;;9.00;5.33;;;;;19.73;54.32;102254.44;5121528;27;45560;-66
2023/09/30 09:18:58;;;;;;;;;16.33;10.33;;;;;19.77;54.60;102248.22;5119863;27;45548;-66
2023/09/30 09:21:26;;;;;;;;;10.33;8.33;;;;;19.91;54.04;102252.44;5120282;27;45420;-67
2023/09/30 09:23:52;;;;;;;;;7.67;6.67;;;;;19.97;54.24;102243.50;5121044;27;45455;-66
2023/09/30 09:26:29;;;;;;;;;12.00;8.67;;;;;20.27;53.64;102220.91;5118566;27;48035;-67
2023/09/30 09:29:00;;;;;;;;;8.33;8.33;;;;;20.65;52.72;102219.47;5118842;27;45515;-67
2023/09/30 09:31:36;;;;;;;;;8.67;8.00;;;;;21.01;51.78;102208.22;5119770;27;45416;-67
2023/09/30 09:34:14;;;;;;;;;7.00;7.00;;;;;21.51;51.03;102203.72;5119977;27;45322;-66
2023/09/30 09:36:41;;;;;;;;;11.67;7.67;;;;;21.89;50.18;102218.91;5119547;27;45336;-67
2023/09/30 09:39:07;;;;;;;;;10.00;6.67;;;;;22.22;49.64;102224.44;5135613;27;45270;-69
2023/09/30 09:41:32;;;;;;;;;10.33;8.33;;;;;22.26;49.69;102233.25;5119695;27;45257;-67
2023/09/30 09:43:59;;;;;;;;;11.00;7.00;;;;;22.42;49.26;102218.63;5118253;27;45944;-67
2023/09/30 09:46:27;;;;;;;;;6.67;6.67;;;;;22.79;48.21;102231.09;5119384;27;45617;-67
2023/09/30 09:48:54;;;;;;;;;9.33;6.33;;;;;22.93;47.86;102236.06;5105068;27;45352;-66
2023/09/30 09:51:20;;;;;;;;;7.00;4.00;;;;;22.92;47.69;102232.53;5119695;27;45237;-68
2023/09/30 09:53:49;;;;;;;;;7.67;7.67;;;;;22.86;47.88;102227.34;5119827;27;45438;-69
2023/09/30 09:56:15;;;;;;;;;8.67;6.33;;;;;22.82;47.55;102225.66;5120600;27;46179;-69
2023/09/30 09:58:43;;;;;;;;;8.00;7.00;;;;;22.84;47.53;102240.72;5119419;27;45411;-67
2023/09/30 10:01:10;;;;;;;;;7.67;4.67;;;;;22.88;47.86;102235.31;5135398;27;45342;-66
2023/09/30 10:03:37;;;;;;;;;7.67;6.33;;;;;22.70;47.96;102207.28;5136182;27;45437;-67
2023/09/30 10:06:04;;;;;;;;;7.00;7.00;;;;;22.76;48.17;102207.13;5119016;27;46092;-67
2023/09/30 10:08:37;;;;;;;;;12.00;8.00;;;;;22.82;47.52;102221.19;5119280;27;45898;-68
2023/09/30 10:11:04;;;;;;;;;15.67;10.33;;;;;22.72;47.75;102218.81;5119031;27;45411;-66
2023/09/30 10:14:02;;;;;;;;;10.33;7.67;;;;;22.91;48.07;102208.53;5119557;27;45415;-67
2023/09/30 10:16:37;;;;;;;;;15.00;10.33;;;;;23.10;47.95;102200.94;5119107;27;46284;-67
2023/09/30 10:19:14;;;;;;;;;14.33;7.67;;;;;23.12;47.81;102189.28;5119949;27;45487;-67
2023/09/30 10:22:00;;;;;;;;;7.67;6.67;;;;;23.50;47.01;102172.13;5102135;27;45554;-67
2023/09/30 10:24:26;;;;;;;;;13.00;9.00;;;;;24.19;45.91;102198.63;5114361;27;45288;-68
2023/09/30 10:27:33;;;;;;;;;10.33;6.67;;;;;24.49;44.34;102207.50;5118997;27;46558;-66
2023/09/30 10:30:15;;;;;;;;;11.33;9.67;;;;;24.25;44.94;102202.88;5118210;27;45591;-68
2023/09/30 10:32:53;;;;;;;;;11.33;8.67;;;;;24.20;44.05;102211.06;5118997;27;45420;-68
2023/09/30 10:35:43;;;;;;;;;7.33;6.00;;;;;24.10;44.60;102197.09;5100952;27;45434;-68
2023/09/30 10:38:27;;;;;;;;;10.67;10.33;;;;;24.34;44.83;102191.88;5113220;27;47455;-68
2023/09/30 10:40:53;;;;;;;;;11.00;5.50;;;;;24.89;43.67;102186.50;5119668;27;45355;-66
2023/09/30 10:43:48;;;;;;;;;9.50;7.00;;;;;25.67;42.55;102186.31;5120410;27;45410;-68
2023/09/30 10:46:26;;;;;;;;;3.50;3.50;;;;;26.89;40.71;102176.06;5104539;27;45441;-67
2023/09/30 10:48:52;;;;;;;;;4.25;4.25;;;;;28.41;37.96;102175.22;5100715;27;45505;-66
2023/09/30 10:51:21;;;;;;;;;6.00;4.75;;;;;30.05;35.46;102175.50;5118623;27;45258;-69
2023/09/30 10:53:52;;;;;;;;;8.50;5.00;;;;;31.22;32.90;102150.47;5118366;27;45352;-68
2023/09/30 10:56:19;;;;;;;;;8.75;5.75;;;;;32.23;31.61;102183.72;5118712;27;45439;-67
2023/09/30 10:58:47;;;;;;;;;8.25;7.25;;;;;32.92;30.29;102177.16;5118561;27;46110;-67
2023/09/30 11:01:18;;;;;;;;;5.80;5.40;;;;;33.33;29.36;102165.22;5104290;27;45612;-67
2023/09/30 11:03:45;;;;;;;;;3.80;3.60;;;;;32.68;30.10;102157.19;5118641;27;45508;-67
2023/09/30 11:06:19;;;;;;;;;10.50;6.00;;;;;31.42;31.39;102144.69;5118507;27;45522;-66
2023/09/30 11:08:51;;;;;;;;;9.60;7.00;;;;;30.65;30.66;102160.22;5118518;27;45854;-66
2023/09/30 11:11:17;;;;;;;;;9.00;8.40;;;;;30.14;32.10;102134.44;5118356;27;45267;-69
2023/09/30 11:13:42;;;;;;;;;10.50;6.25;;;;;30.21;32.32;102147.50;5118602;27;45237;-65
2023/09/30 11:16:08;;;;;;;;;10.75;6.75;;;;;30.54;32.47;102141.09;5118868;27;45402;-66
2023/09/30 11:18:35;;;;;;;;;9.50;7.25;;;;;31.93;30.30;102140.53;5119553;27;46126;-67
2023/09/30 11:21:10;;;;;;;;;7.00;6.20;;;;;32.41;29.76;102143.63;5118576;27;45428;-66
2023/09/30 11:23:42;;;;;;;;;8.40;7.00;;;;;31.28;30.86;102140.13;5118356;27;45557;-67
2023/09/30 11:26:09;;;;;;;;;7.00;6.60;;;;;29.76;32.64;102164.53;5116727;27;45399;-68
2023/09/30 11:28:40;;;;;;;;;8.00;5.60;;;;;28.01;34.83;102144.00;5118355;27;45477;-66
2023/09/30 11:31:10;;;;;;;;;8.40;7.00;;;;;26.72;37.27;102090.78;5118889;27;45496;-67